Time;durP1;ratioP1;P1;durP2;ratioP2;P2;SDS_P1;SDS_P2;PMS_P1;PMS_P2;Temp;Humidity;BMP_temperature;BMP_pressure;BME280_temperature;BME280_humidity;BME280_pressure;Samples;Min_cycle;Max_cycle;Signal;HPM_P1;HPM_P2
2023/03/25 00:02:08;;;;;;;;;;;;;;;20.80;42.22;99691.28;7256341;19;154078;-55
2023/03/25 00:04:38;;;;;;;;;;;;;;;20.79;42.08;99687.63;7256034;19;152931;-55
2023/03/25 00:07:03;;;;;;;;;;;;;;;20.77;41.82;99695.56;7255310;19;152427;-55
2023/03/25 00:09:30;;;;;;;;;;;;;;;20.76;41.86;99696.72;7261630;19;153439;-55
2023/03/25 00:11:57;;;;;;;;;;;;;;;20.76;42.04;99690.28;7255802;19;153805;-55
2023/03/25 00:14:25;;;;;;;;;;;;;;;20.75;42.00;99694.28;7254943;19;152565;-55
2023/03/25 00:16:52;;;;;;;;;;;;;;;20.74;42.33;99699.06;7250501;19;153860;-54
2023/03/25 00:19:20;;;;;;;;;;;;;;;20.71;42.12;99708.19;7250309;19;153269;-55
2023/03/25 00:21:49;;;;;;;;;;;;;;;20.73;42.32;99705.84;7256374;19;154109;-54
2023/03/25 00:24:16;;;;;;;;;;;;;;;20.71;42.24;99682.09;7250004;19;153504;-54
2023/03/25 00:26:44;;;;;;;;;;;;;;;20.70;42.66;99689.69;7253370;19;153169;-54
2023/03/25 00:29:12;;;;;;;;;;;;;;;20.71;42.93;99690.50;7254545;19;153757;-54
2023/03/25 00:31:40;;;;;;;;;;;;;;;20.70;42.79;99702.88;7262600;19;153679;-54
2023/03/25 00:34:13;;;;;;;;;;;;;;;20.68;42.83;99702.41;7256175;19;152815;-54
2023/03/25 00:36:42;;;;;;;;;;;;;;;20.68;42.83;99697.59;7254287;19;153575;-55
2023/03/25 00:39:09;;;;;;;;;;;;;;;20.68;42.82;99692.00;7254589;19;152670;-54
2023/03/25 00:41:40;;;;;;;;;;;;;;;20.67;43.13;99678.31;7253668;19;153062;-54
2023/03/25 00:44:08;;;;;;;;;;;;;;;20.67;42.84;99692.34;7246416;19;154228;-54
2023/03/25 00:46:37;;;;;;;;;;;;;;;20.63;43.34;99683.78;7254354;19;153772;-55
2023/03/25 00:49:04;;;;;;;;;;;;;;;20.63;43.11;99680.97;7254554;19;152397;-54
2023/03/25 00:51:32;;;;;;;;;;;;;;;20.63;42.94;99677.31;7251732;19;153516;-55
2023/03/25 00:53:59;;;;;;;;;;;;;;;20.63;43.23;99682.94;7263678;19;153593;-54
2023/03/25 00:56:27;;;;;;;;;;;;;;;20.58;43.10;99688.78;7249689;19;151970;-55
2023/03/25 00:58:54;;;;;;;;;;;;;;;20.58;42.97;99686.78;7251960;19;153328;-55
2023/03/25 01:01:25;;;;;;;;;;;;;;;20.56;43.45;99686.31;7252178;19;156492;-55
2023/03/25 01:03:56;;;;;;;;;;;;;;;20.54;42.98;99697.03;7252771;19;153296;-55
2023/03/25 01:06:27;;;;;;;;;;;;;;;20.54;43.29;99688.59;7258883;19;153254;-55
2023/03/25 01:08:56;;;;;;;;;;;;;;;20.52;43.15;99690.13;7249324;19;155727;-55
2023/03/25 01:11:25;;;;;;;;;;;;;;;20.49;42.96;99700.03;7250641;19;152104;-55
2023/03/25 01:13:53;;;;;;;;;;;;;;;20.49;43.38;99699.22;7251694;19;153386;-55
2023/03/25 01:16:19;;;;;;;;;;;;;;;20.48;43.64;99694.78;7258815;19;153416;-55
2023/03/25 01:18:45;;;;;;;;;;;;;;;20.48;43.61;99695.59;7250232;19;153713;-55
2023/03/25 01:21:13;;;;;;;;;;;;;;;20.47;43.55;99693.94;7252272;19;152976;-55
2023/03/25 01:23:42;;;;;;;;;;;;;;;20.42;43.23;99689.34;7248862;19;154752;-55
2023/03/25 01:26:09;;;;;;;;;;;;;;;20.41;43.30;99695.28;7253277;19;154117;-55
2023/03/25 01:28:39;;;;;;;;;;;;;;;20.41;43.76;99687.69;7252245;19;153597;-55
2023/03/25 01:31:07;;;;;;;;;;;;;;;20.40;43.76;99690.84;7252227;19;153135;-56
2023/03/25 01:33:34;;;;;;;;;;;;;;;20.39;44.07;99690.03;7252285;19;154317;-55
2023/03/25 01:36:02;;;;;;;;;;;;;;;20.39;43.85;99692.03;7253651;19;152017;-55
2023/03/25 01:38:29;;;;;;;;;;;;;;;20.36;44.00;99692.66;7258481;19;153962;-55
2023/03/25 01:40:56;;;;;;;;;;;;;;;20.34;43.82;99695.00;7250438;19;153809;-55
2023/03/25 01:43:23;;;;;;;;;;;;;;;20.30;43.83;99686.47;7251788;19;153899;-55
2023/03/25 01:45:50;;;;;;;;;;;;;;;20.27;43.98;99691.88;7253328;19;153262;-55
2023/03/25 01:48:17;;;;;;;;;;;;;;;20.22;43.93;99690.06;7253027;19;153837;-55
2023/03/25 01:55:43;;;;;;;;;;;;;;;20.20;43.93;99681.19;7254119;19;153795;-55
2023/03/25 01:58:12;;;;;;;;;;;;;;;20.17;44.09;99689.47;7257454;19;152558;-55
2023/03/25 02:00:42;;;;;;;;;;;;;;;20.11;43.86;99688.81;7251689;19;152955;-55
2023/03/25 02:03:10;;;;;;;;;;;;;;;20.13;43.55;99677.25;7251022;19;155264;-55
2023/03/25 02:05:45;;;;;;;;;;;;;;;20.06;43.88;99683.38;7252621;19;154356;-55
2023/03/25 02:08:14;;;;;;;;;;;;;;;20.05;43.69;99680.91;7253599;19;153483;-55
2023/03/25 02:10:41;;;;;;;;;;;;;;;20.02;43.99;99685.22;7256212;19;152850;-55
2023/03/25 02:13:09;;;;;;;;;;;;;;;20.01;43.95;99685.53;7259577;19;152984;-55
2023/03/25 02:15:40;;;;;;;;;;;;;;;20.00;43.86;99695.94;7258097;19;153253;-55
2023/03/25 02:18:14;;;;;;;;;;;;;;;19.98;43.88;99684.25;7253556;19;154249;-55
2023/03/25 02:20:43;;;;;;;;;;;;;;;19.97;44.12;99697.44;7264076;19;153509;-55
2023/03/25 02:23:13;;;;;;;;;;;;;;;19.91;44.17;99698.78;7251971;19;157393;-55
2023/03/25 02:25:44;;;;;;;;;;;;;;;19.92;43.75;99703.22;7256120;19;153773;-55
2023/03/25 02:30:45;;;;;;;;;;;;;;;19.93;43.99;99701.25;7260285;19;152936;-55
2023/03/25 02:33:15;;;;;;;;;;;;;;;19.89;43.73;99691.88;7258211;19;153303;-55
2023/03/25 02:35:46;;;;;;;;;;;;;;;19.85;43.83;99699.31;7259245;19;153841;-55
2023/03/25 02:38:16;;;;;;;;;;;;;;;19.87;43.62;99702.56;7255338;19;153516;-55
2023/03/25 02:40:45;;;;;;;;;;;;;;;19.84;43.61;99704.09;7255249;19;152970;-55
2023/03/25 02:43:14;;;;;;;;;;;;;;;19.83;43.49;99693.19;7263625;19;154242;-55
2023/03/25 02:45:45;;;;;;;;;;;;;;;19.82;43.90;99702.75;7258122;19;153727;-55
2023/03/25 02:48:17;;;;;;;;;;;;;;;19.79;43.94;99704.25;7257149;19;153581;-55
2023/03/25 02:50:47;;;;;;;;;;;;;;;19.79;43.82;99700.63;7259225;19;153272;-55
2023/03/25 02:53:19;;;;;;;;;;;;;;;19.77;43.94;99702.94;7252581;19;153840;-55
2023/03/25 02:55:49;;;;;;;;;;;;;;;19.75;43.56;99708.88;7256294;19;153520;-54
2023/03/25 02:58:20;;;;;;;;;;;;;;;19.73;43.60;99702.78;7255442;19;153706;-56
2023/03/25 03:00:49;;;;;;;;;;;;;;;19.70;44.20;99714.66;7257017;19;154350;-55
2023/03/25 03:03:17;;;;;;;;;;;;;;;19.72;43.99;99706.72;7258187;19;153405;-55
2023/03/25 03:05:48;;;;;;;;;;;;;;;19.71;44.10;99707.09;7264518;19;153572;-55
2023/03/25 03:08:19;;;;;;;;;;;;;;;19.68;43.92;99716.97;7255567;19;153432;-55
2023/03/25 03:10:48;;;;;;;;;;;;;;;19.70;43.97;99716.63;7254084;19;152411;-55
2023/03/25 03:13:21;;;;;;;;;;;;;;;19.68;44.27;99714.16;7256032;19;153622;-56
2023/03/25 03:15:51;;;;;;;;;;;;;;;19.62;44.18;99715.50;7258283;19;152921;-55
2023/03/25 03:18:25;;;;;;;;;;;;;;;19.61;44.24;99719.47;7255959;19;154345;-55
2023/03/25 03:20:59;;;;;;;;;;;;;;;19.58;44.17;99731.31;7254046;19;153237;-56
2023/03/25 03:23:32;;;;;;;;;;;;;;;19.57;44.27;99724.09;7257670;19;153780;-55
2023/03/25 03:26:07;;;;;;;;;;;;;;;19.52;44.36;99721.47;7257535;19;153903;-56
2023/03/25 03:28:44;;;;;;;;;;;;;;;19.55;44.36;99720.78;7264446;19;153362;-55
2023/03/25 03:31:19;;;;;;;;;;;;;;;19.47;44.29;99736.47;7256441;19;154111;-55
2023/03/25 03:33:49;;;;;;;;;;;;;;;19.46;44.30;99740.41;7254065;19;153708;-55
2023/03/25 03:36:19;;;;;;;;;;;;;;;19.49;43.87;99725.72;7257663;19;152855;-55
2023/03/25 03:38:50;;;;;;;;;;;;;;;19.45;44.55;99727.53;7255354;19;152496;-56
2023/03/25 03:41:18;;;;;;;;;;;;;;;19.44;44.66;99731.50;7258394;19;154061;-56
2023/03/25 03:43:48;;;;;;;;;;;;;;;19.43;44.25;99726.22;7255602;19;152287;-56
2023/03/25 03:46:20;;;;;;;;;;;;;;;19.45;44.32;99730.34;7255639;19;153241;-56
2023/03/25 03:48:53;;;;;;;;;;;;;;;19.42;44.39;99722.59;7254605;19;153462;-56
2023/03/25 03:51:23;;;;;;;;;;;;;;;19.42;44.19;99733.78;7263469;19;153717;-56
2023/03/25 03:53:58;;;;;;;;;;;;;;;19.38;44.76;99734.78;7254786;19;154044;-56
2023/03/25 03:56:31;;;;;;;;;;;;;;;19.35;44.70;99727.84;7256998;19;153770;-56
2023/03/25 03:58:59;;;;;;;;;;;;;;;19.34;44.46;99737.44;7256424;19;153109;-56
2023/03/25 04:04:03;;;;;;;;;;;;;;;19.33;44.62;99749.78;7256831;19;153108;-56
2023/03/25 04:06:34;;;;;;;;;;;;;;;19.30;44.25;99744.84;7248294;19;153186;-57
2023/03/25 04:09:07;;;;;;;;;;;;;;;19.26;44.27;99752.22;7255379;19;154201;-56
2023/03/25 04:11:39;;;;;;;;;;;;;;;19.31;44.25;99762.44;7263069;19;152706;-56
2023/03/25 04:14:07;;;;;;;;;;;;;;;19.27;44.18;99748.28;7255897;19;153331;-56
2023/03/25 04:16:36;;;;;;;;;;;;;;;19.30;44.53;99760.81;7255204;19;153422;-56
2023/03/25 04:19:04;;;;;;;;;;;;;;;19.24;44.54;99754.53;7251776;19;152650;-56
2023/03/25 04:21:32;;;;;;;;;;;;;;;19.24;44.15;99753.72;7251184;19;153805;-56
2023/03/25 04:24:00;;;;;;;;;;;;;;;19.21;44.51;99758.00;7254820;19;154144;-56
2023/03/25 04:26:32;;;;;;;;;;;;;;;19.20;44.25;99761.13;7252424;19;154718;-55
2023/03/25 04:28:59;;;;;;;;;;;;;;;19.23;44.20;99757.66;7255960;19;151849;-56
2023/03/25 04:31:29;;;;;;;;;;;;;;;19.21;44.24;99763.63;7256195;19;154748;-55
2023/03/25 04:33:57;;;;;;;;;;;;;;;19.16;44.43;99766.56;7260562;19;153766;-56
2023/03/25 04:36:27;;;;;;;;;;;;;;;19.15;44.59;99772.50;7257078;19;153461;-56
2023/03/25 04:38:54;;;;;;;;;;;;;;;19.10;44.25;99777.09;7256601;19;153961;-56
2023/03/25 04:41:22;;;;;;;;;;;;;;;19.13;44.53;99774.78;7257036;19;153431;-56
2023/03/25 04:43:49;;;;;;;;;;;;;;;19.12;44.60;99775.94;7246534;19;153418;-56
2023/03/25 04:46:16;;;;;;;;;;;;;;;19.09;44.41;99781.03;7252173;19;155629;-56
2023/03/25 04:51:12;;;;;;;;;;;;;;;19.07;44.46;99785.34;7258900;19;153181;-56
2023/03/25 04:53:39;;;;;;;;;;;;;;;19.06;44.70;99784.50;7255130;19;155638;-56
2023/03/25 04:56:11;;;;;;;;;;;;;;;19.05;44.49;99782.03;7263080;19;152432;-56
2023/03/25 04:58:40;;;;;;;;;;;;;;;19.07;44.55;99783.38;7251683;19;156264;-56
2023/03/25 05:01:10;;;;;;;;;;;;;;;19.02;44.67;99785.50;7254647;19;153651;-56
2023/03/25 05:03:38;;;;;;;;;;;;;;;19.01;44.75;99781.84;7251015;19;152848;-56
2023/03/25 05:06:06;;;;;;;;;;;;;;;19.00;44.84;99788.59;7252993;19;153301;-56
2023/03/25 05:08:33;;;;;;;;;;;;;;;18.99;44.82;99789.75;7252306;19;152132;-56
2023/03/25 05:11:01;;;;;;;;;;;;;;;18.96;45.02;99798.81;7248488;19;154215;-56
2023/03/25 05:13:28;;;;;;;;;;;;;;;18.95;44.71;99796.31;7251385;19;153851;-56
2023/03/25 05:15:56;;;;;;;;;;;;;;;18.94;44.86;99797.50;7253382;19;152743;-55
2023/03/25 05:18:23;;;;;;;;;;;;;;;18.91;45.05;99807.34;7260059;19;153615;-56
2023/03/25 05:20:50;;;;;;;;;;;;;;;18.94;44.77;99803.88;7250465;19;153972;-56
2023/03/25 05:23:16;;;;;;;;;;;;;;;18.94;44.69;99798.28;7251620;19;154510;-55
2023/03/25 05:25:46;;;;;;;;;;;;;;;18.93;44.86;99802.28;7247433;19;154929;-56
2023/03/25 05:28:13;;;;;;;;;;;;;;;18.97;44.73;99802.44;7253139;19;153762;-56
2023/03/25 05:30:42;;;;;;;;;;;;;;;18.90;44.99;99807.66;7253176;19;154931;-56
2023/03/25 05:33:14;;;;;;;;;;;;;;;18.91;45.21;99810.16;7252308;19;153682;-56
2023/03/25 05:40:39;;;;;;;;;;;;;;;18.89;45.11;99815.25;7261001;19;154073;-56
2023/03/25 05:43:07;;;;;;;;;;;;;;;18.90;44.81;99821.66;7253784;19;151947;-56
2023/03/25 05:45:35;;;;;;;;;;;;;;;18.88;44.67;99830.41;7255786;19;154032;-56
2023/03/25 05:48:02;;;;;;;;;;;;;;;18.88;45.00;99823.97;7253918;19;153480;-55
2023/03/25 05:50:30;;;;;;;;;;;;;;;18.82;45.00;99837.28;7260041;19;154022;-55
2023/03/25 05:52:58;;;;;;;;;;;;;;;18.83;45.04;99841.75;7258249;19;154435;-55
2023/03/25 05:55:26;;;;;;;;;;;;;;;;;;;;;
2023/03/25 05:57:53;;;;;;;;;;;;;;;18.84;44.99;99837.81;7259855;19;154135;-55
2023/03/25 06:00:20;;;;;;;;;;;;;;;18.81;44.86;99835.63;7257487;19;153481;-56
2023/03/25 06:02:50;;;;;;;;;;;;;;;18.78;45.03;99847.47;7268465;19;152247;-55
2023/03/25 06:05:22;;;;;;;;;;;;;;;18.78;44.83;99841.88;7258995;19;152957;-55
2023/03/25 06:07:50;;;;;;;;;;;;;;;18.77;44.94;99858.97;7259278;19;154438;-55
2023/03/25 06:10:16;;;;;;;;;;;;;;;18.77;44.66;99862.63;7255732;19;153822;-55
2023/03/25 06:12:45;;;;;;;;;;;;;;;18.78;44.89;99864.28;7258410;19;152737;-55
2023/03/25 06:15:14;;;;;;;;;;;;;;;18.79;44.84;99863.13;7259720;19;152828;-54
2023/03/25 06:17:45;;;;;;;;;;;;;;;18.75;44.96;99867.72;7258201;19;154105;-55
2023/03/25 06:20:15;;;;;;;;;;;;;;;18.75;44.92;99878.09;7258292;19;153808;-55
2023/03/25 06:22:43;;;;;;;;;;;;;;;18.73;45.00;99878.41;7262937;19;153879;-55
2023/03/25 06:25:11;;;;;;;;;;;;;;;18.73;44.61;99875.59;7256501;19;154274;-54
2023/03/25 06:27:39;;;;;;;;;;;;;;;18.75;44.68;99878.09;7258478;19;153187;-55
2023/03/25 06:30:10;;;;;;;;;;;;;;;18.72;44.76;99882.34;7257005;19;153454;-55
2023/03/25 06:32:37;;;;;;;;;;;;;;;18.70;45.01;99875.44;7249841;19;154120;-55
2023/03/25 06:35:06;;;;;;;;;;;;;;;18.69;44.89;99877.41;7258650;19;152607;-55
2023/03/25 06:37:33;;;;;;;;;;;;;;;18.67;44.90;99880.50;7258407;19;153208;-55
2023/03/25 06:40:01;;;;;;;;;;;;;;;18.66;45.19;99872.47;7257550;19;152906;-55
2023/03/25 06:42:29;;;;;;;;;;;;;;;18.66;44.85;99864.06;7259294;19;153164;-55
2023/03/25 06:45:03;;;;;;;;;;;;;;;18.64;44.99;99858.78;7264538;19;152948;-55
2023/03/25 06:47:33;;;;;;;;;;;;;;;18.65;45.20;99871.63;7259083;19;153997;-55
2023/03/25 06:50:01;;;;;;;;;;;;;;;18.65;44.93;99871.63;7258055;19;154427;-55
2023/03/25 06:52:28;;;;;;;;;;;;;;;18.66;45.12;99866.88;7256206;19;152372;-55
2023/03/25 06:54:58;;;;;;;;;;;;;;;18.65;44.94;99874.44;7256576;19;153240;-54
2023/03/25 06:57:25;;;;;;;;;;;;;;;18.63;45.07;99885.09;7246442;19;154913;-55
2023/03/25 06:59:53;;;;;;;;;;;;;;;18.63;45.16;99892.66;7255647;19;154001;-55
2023/03/25 07:02:21;;;;;;;;;;;;;;;18.61;44.88;99884.63;7254719;19;154189;-55
2023/03/25 07:04:48;;;;;;;;;;;;;;;18.61;44.79;99889.38;7257864;19;154350;-54
2023/03/25 07:07:17;;;;;;;;;;;;;;;18.58;45.00;99896.41;7261114;19;154525;-55
2023/03/25 07:09:44;;;;;;;;;;;;;;;18.61;44.79;99892.19;7257522;19;152922;-55
2023/03/25 07:12:12;;;;;;;;;;;;;;;18.58;45.14;99898.38;7253075;19;154546;-55
2023/03/25 07:14:43;;;;;;;;;;;;;;;18.60;44.93;99899.75;7256388;19;153353;-55
2023/03/25 07:17:13;;;;;;;;;;;;;;;18.58;44.89;99907.63;7256792;19;153727;-55
2023/03/25 07:19:42;;;;;;;;;;;;;;;18.55;44.72;99897.06;7255938;19;154835;-55
2023/03/25 07:22:10;;;;;;;;;;;;;;;18.52;44.75;99891.28;7255147;19;154225;-55
2023/03/25 07:24:38;;;;;;;;;;;;;;;18.53;45.07;99907.75;7246140;19;154393;-55
2023/03/25 07:27:11;;;;;;;;;;;;;;;18.56;44.72;99906.28;7252342;19;154217;-55
2023/03/25 07:29:39;;;;;;;;;;;;;;;18.56;45.07;99897.91;7263172;19;153387;-55
2023/03/25 07:32:09;;;;;;;;;;;;;;;18.51;45.12;99906.41;7254220;19;153231;-55
2023/03/25 07:34:38;;;;;;;;;;;;;;;18.52;44.92;99896.88;7256902;19;154317;-55
2023/03/25 07:37:07;;;;;;;;;;;;;;;18.51;44.95;99903.59;7255925;19;153379;-55
2023/03/25 07:39:34;;;;;;;;;;;;;;;18.52;44.90;99894.06;7254831;19;153704;-55
2023/03/25 07:42:02;;;;;;;;;;;;;;;18.51;45.03;99906.41;7256989;19;153517;-55
2023/03/25 07:44:30;;;;;;;;;;;;;;;18.49;45.09;99912.28;7256973;19;153221;-55
2023/03/25 07:46:58;;;;;;;;;;;;;;;18.49;44.96;99931.03;7253213;19;153416;-55
2023/03/25 07:49:28;;;;;;;;;;;;;;;18.45;45.15;99927.25;7248719;19;152709;-55
2023/03/25 07:51:56;;;;;;;;;;;;;;;18.46;45.15;99912.94;7263237;19;153561;-55
2023/03/25 07:54:27;;;;;;;;;;;;;;;18.42;45.45;99928.72;7253859;19;153356;-55
2023/03/25 07:56:56;;;;;;;;;;;;;;;18.45;45.07;99938.44;7255344;19;153712;-56
2023/03/25 07:59:25;;;;;;;;;;;;;;;18.42;45.21;99925.09;7251463;19;154052;-55
2023/03/25 08:01:55;;;;;;;;;;;;;;;18.46;45.02;99946.50;7256226;19;153065;-56
2023/03/25 08:04:22;;;;;;;;;;;;;;;18.44;45.19;99943.19;7255332;19;154463;-55
2023/03/25 08:06:54;;;;;;;;;;;;;;;18.44;45.45;99937.59;7252469;19;153553;-55
2023/03/25 08:09:22;;;;;;;;;;;;;;;18.44;45.50;99968.38;7253876;19;153547;-56
2023/03/25 08:11:51;;;;;;;;;;;;;;;18.43;45.20;99952.75;7255460;19;154095;-56
2023/03/25 08:14:19;;;;;;;;;;;;;;;18.43;45.28;99947.16;7254878;19;154706;-55
2023/03/25 08:16:47;;;;;;;;;;;;;;;18.43;45.17;99966.75;7255329;19;153559;-55
2023/03/25 08:19:15;;;;;;;;;;;;;;;18.46;44.91;99979.25;7253612;19;154531;-56
2023/03/25 08:21:48;;;;;;;;;;;;;;;18.40;45.32;99963.72;7256272;19;152549;-55
2023/03/25 08:24:16;;;;;;;;;;;;;;;18.42;45.33;99975.44;7249106;19;152414;-55
2023/03/25 08:26:44;;;;;;;;;;;;;;;18.42;45.44;99989.41;7250608;19;155102;-55
2023/03/25 08:29:12;;;;;;;;;;;;;;;18.39;45.42;99984.47;7254897;19;152896;-56
2023/03/25 08:31:45;;;;;;;;;;;;;;;18.41;45.45;99996.97;7254821;19;152984;-55
2023/03/25 08:34:16;;;;;;;;;;;;;;;18.40;45.11;100002.88;7259397;19;154461;-56
2023/03/25 08:36:55;;;;;;;;;;;;;;;18.38;45.09;100003.22;7251859;19;153390;-55
2023/03/25 08:39:28;;;;;;;;;;;;;;;18.35;45.31;100017.81;7247297;19;155457;-55
2023/03/25 08:42:00;;;;;;;;;;;;;;;18.37;45.57;100000.72;7244782;19;153344;-55
2023/03/25 08:44:27;;;;;;;;;;;;;;;18.40;45.65;100008.47;7251790;19;151940;-56
2023/03/25 08:46:54;;;;;;;;;;;;;;;18.38;45.55;100011.59;7246433;19;155005;-55
2023/03/25 08:49:24;;;;;;;;;;;;;;;18.40;45.59;100022.47;7250281;19;153311;-55
2023/03/25 08:51:53;;;;;;;;;;;;;;;18.42;45.58;100031.38;7251778;19;152826;-55
2023/03/25 08:54:35;;;;;;;;;;;;;;;18.40;45.24;100028.03;7246638;19;152826;-55
2023/03/25 08:57:03;;;;;;;;;;;;;;;18.40;45.24;100030.84;7258599;19;153209;-55
2023/03/25 08:59:34;;;;;;;;;;;;;;;18.38;45.42;100033.16;7247606;19;153858;-55
2023/03/25 09:02:02;;;;;;;;;;;;;;;18.37;45.52;100048.25;7251398;19;153717;-55
2023/03/25 09:04:31;;;;;;;;;;;;;;;18.36;45.38;100049.41;7251190;19;153473;-55
2023/03/25 09:06:58;;;;;;;;;;;;;;;18.36;45.81;100041.84;7240992;19;154041;-55
2023/03/25 09:09:37;;;;;;;;;;;;;;;18.36;45.76;100055.00;7253108;19;154214;-56
2023/03/25 09:12:06;;;;;;;;;;;;;;;18.36;45.53;100046.59;7254750;19;153980;-55
2023/03/25 09:14:33;;;;;;;;;;;;;;;18.38;45.48;100061.94;7253725;19;153597;-55
2023/03/25 09:17:02;;;;;;;;;;;;;;;18.36;45.96;100053.03;7255202;19;154284;-55
2023/03/25 09:19:33;;;;;;;;;;;;;;;18.36;45.79;100064.22;7259783;19;154428;-55
2023/03/25 09:22:03;;;;;;;;;;;;;;;18.37;45.88;100076.22;7255012;19;153765;-55
2023/03/25 09:24:32;;;;;;;;;;;;;;;18.39;45.75;100065.56;7252231;19;153285;-55
2023/03/25 09:27:01;;;;;;;;;;;;;;;18.35;45.70;100061.75;7245391;19;152467;-55
2023/03/25 09:29:31;;;;;;;;;;;;;;;18.35;45.51;100084.13;7253100;19;153907;-55
2023/03/25 09:32:02;;;;;;;;;;;;;;;18.36;45.14;100072.59;7246836;19;155006;-55
2023/03/25 09:34:31;;;;;;;;;;;;;;;18.30;45.53;100081.44;7251267;19;153550;-56
2023/03/25 09:37:02;;;;;;;;;;;;;;;18.33;45.45;100075.22;7251662;19;153001;-56
2023/03/25 09:39:33;;;;;;;;;;;;;;;18.34;45.19;100091.69;7252580;19;153780;-56
2023/03/25 09:42:03;;;;;;;;;;;;;;;18.31;45.52;100083.06;7259179;19;153946;-56
2023/03/25 09:44:35;;;;;;;;;;;;;;;18.33;45.56;100089.19;7253334;19;153276;-56
2023/03/25 09:47:11;;;;;;;;;;;;;;;18.34;45.20;100093.66;7250293;19;154658;-56
2023/03/25 09:49:48;;;;;;;;;;;;;;;18.32;45.22;100090.31;7253931;19;154716;-56
2023/03/25 09:52:29;;;;;;;;;;;;;;;18.32;45.59;100101.50;7254212;19;152602;-56
2023/03/25 09:55:01;;;;;;;;;;;;;;;18.32;45.79;100113.53;7248545;19;153536;-56
2023/03/25 09:57:34;;;;;;;;;;;;;;;18.34;45.44;100116.03;7241474;19;153371;-56
2023/03/25 10:00:07;;;;;;;;;;;;;;;18.35;44.29;100124.06;7251784;19;154320;-55
2023/03/25 10:02:40;;;;;;;;;;;;;;;18.09;43.07;100122.97;7247946;19;155236;-56
2023/03/25 10:05:13;;;;;;;;;;;;;;;18.05;43.86;100131.19;7259769;19;152696;-56
2023/03/25 10:07:45;;;;;;;;;;;;;;;18.11;44.06;100123.50;7249028;19;153629;-56
2023/03/25 10:10:20;;;;;;;;;;;;;;;18.16;43.76;100151.38;7250340;19;152974;-56
2023/03/25 10:12:52;;;;;;;;;;;;;;;18.21;43.42;100137.28;7252561;19;153087;-55
2023/03/25 10:15:40;;;;;;;;;;;;;;;18.30;43.68;100143.78;7250705;19;153813;-56
2023/03/25 10:18:13;;;;;;;;;;;;;;;18.38;43.58;100147.81;7251604;19;154501;-56
2023/03/25 10:20:51;;;;;;;;;;;;;;;18.42;43.58;100146.88;7251647;19;153661;-56
2023/03/25 10:23:29;;;;;;;;;;;;;;;18.48;43.73;100156.81;7251159;19;153505;-56
2023/03/25 10:26:05;;;;;;;;;;;;;;;18.54;43.57;100157.53;7248372;19;154403;-56
2023/03/25 10:28:42;;;;;;;;;;;;;;;18.58;43.47;100162.19;7246521;19;153226;-56
2023/03/25 10:31:16;;;;;;;;;;;;;;;18.65;43.30;100172.97;7261446;19;152878;-56
2023/03/25 10:33:50;;;;;;;;;;;;;;;18.72;43.73;100189.28;7256369;19;152378;-56
2023/03/25 10:36:34;;;;;;;;;;;;;;;18.75;43.64;100178.31;7258477;19;152703;-56
2023/03/25 10:39:14;;;;;;;;;;;;;;;18.82;43.72;100177.88;7257970;19;153798;-56
2023/03/25 10:42:13;;;;;;;;;;;;;;;18.89;43.58;100183.88;7255147;19;155127;-56
2023/03/25 10:44:42;;;;;;;;;;;;;;;18.95;43.33;100185.41;7257256;19;153044;-56
2023/03/25 10:47:15;;;;;;;;;;;;;;;19.00;43.31;100200.09;7253485;19;153919;-56
2023/03/25 10:49:43;;;;;;;;;;;;;;;19.06;43.31;100196.06;7263826;19;152940;-56
2023/03/25 10:52:12;;;;;;;;;;;;;;;19.12;43.38;100205.16;7258646;19;153663;-56
2023/03/25 10:54:41;;;;;;;;;;;;;;;19.18;43.23;100203.88;7254190;19;155383;-56
2023/03/25 10:57:15;;;;;;;;;;;;;;;19.25;43.23;100209.03;7249800;19;154660;-56
2023/03/25 10:59:49;;;;;;;;;;;;;;;19.32;43.26;100201.84;7257554;19;153189;-56
2023/03/25 11:02:24;;;;;;;;;;;;;;;19.38;43.06;100214.59;7256129;19;153224;-56
2023/03/25 11:04:57;;;;;;;;;;;;;;;19.45;42.70;100216.94;7254627;19;153738;-55
2023/03/25 11:07:27;;;;;;;;;;;;;;;19.51;42.94;100232.50;7255859;19;153225;-55
2023/03/25 11:10:03;;;;;;;;;;;;;;;19.56;42.85;100223.97;7254776;19;152107;-56
2023/03/25 11:12:44;;;;;;;;;;;;;;;19.65;42.52;100232.44;7258922;19;154584;-55
2023/03/25 11:15:14;;;;;;;;;;;;;;;19.69;42.30;100242.69;7256723;19;154150;-55
2023/03/25 11:18:02;;;;;;;;;;;;;;;19.75;42.22;100244.22;7253344;19;153882;-56
2023/03/25 11:20:49;;;;;;;;;;;;;;;19.85;42.36;100246.72;7249426;19;154108;-56
2023/03/25 11:23:18;;;;;;;;;;;;;;;19.92;42.04;100251.88;7245783;19;153981;-56
2023/03/25 11:25:45;;;;;;;;;;;;;;;19.98;42.29;100250.59;7253674;19;153345;-55
2023/03/25 11:28:15;;;;;;;;;;;;;;;20.04;42.13;100245.66;7256852;19;153261;-56
2023/03/25 11:30:45;;;;;;;;;;;;;;;20.11;42.27;100246.88;7255515;19;153489;-56
2023/03/25 11:33:13;;;;;;;;;;;;;;;20.17;42.08;100261.59;7255426;19;152515;-56
2023/03/25 11:35:43;;;;;;;;;;;;;;;20.22;42.00;100267.03;7265663;19;153587;-56
2023/03/25 11:38:14;;;;;;;;;;;;;;;20.28;42.13;100268.56;7255078;19;154424;-56
2023/03/25 11:40:49;;;;;;;;;;;;;;;20.33;42.00;100260.88;7253512;19;152146;-56
2023/03/25 11:43:19;;;;;;;;;;;;;;;20.40;41.84;100260.38;7256126;19;153929;-56
2023/03/25 11:45:48;;;;;;;;;;;;;;;20.46;42.04;100266.69;7255844;19;152617;-56
2023/03/25 11:48:18;;;;;;;;;;;;;;;20.51;41.68;100252.50;7253172;19;154443;-56
2023/03/25 11:50:51;;;;;;;;;;;;;;;20.56;41.39;100266.38;7255602;19;153261;-56
2023/03/25 11:53:20;;;;;;;;;;;;;;;20.60;41.51;100257.00;7255426;19;154641;-56
2023/03/25 11:55:50;;;;;;;;;;;;;;;20.65;41.43;100259.66;7256365;19;153733;-56
2023/03/25 11:58:20;;;;;;;;;;;;;;;20.70;41.15;100264.28;7260667;19;154330;-56
2023/03/25 12:00:48;;;;;;;;;;;;;;;20.74;41.53;100265.28;7255128;19;152359;-56
2023/03/25 12:03:17;;;;;;;;;;;;;;;20.76;41.12;100263.78;7256098;19;152292;-56
2023/03/25 12:05:49;;;;;;;;;;;;;;;20.81;41.10;100262.81;7256043;19;155641;-56
2023/03/25 12:08:19;;;;;;;;;;;;;;;20.83;40.97;100269.78;7257239;19;153227;-56
2023/03/25 12:10:56;;;;;;;;;;;;;;;20.88;40.92;100271.59;7257550;19;152750;-56
2023/03/25 12:13:29;;;;;;;;;;;;;;;20.91;40.67;100270.09;7254663;19;155655;-56
2023/03/25 12:16:01;;;;;;;;;;;;;;;20.94;40.68;100273.06;7259808;19;152902;-56
2023/03/25 12:18:29;;;;;;;;;;;;;;;20.98;40.87;100278.88;7258336;19;154633;-56
2023/03/25 12:20:59;;;;;;;;;;;;;;;20.99;40.28;100272.91;7262850;19;153392;-56
2023/03/25 12:23:29;;;;;;;;;;;;;;;21.01;40.37;100275.41;7257011;19;153312;-56
2023/03/25 12:25:59;;;;;;;;;;;;;;;21.05;40.44;100279.22;7253560;19;155082;-56
2023/03/25 12:28:29;;;;;;;;;;;;;;;21.04;40.06;100271.94;7256351;19;154755;-56
2023/03/25 12:31:00;;;;;;;;;;;;;;;21.05;40.06;100270.78;7255885;19;154104;-56
2023/03/25 12:33:35;;;;;;;;;;;;;;;21.06;39.92;100270.47;7257110;19;154969;-56
2023/03/25 12:36:04;;;;;;;;;;;;;;;21.07;39.90;100285.34;7256514;19;154160;-56
2023/03/25 12:38:35;;;;;;;;;;;;;;;21.09;39.53;100294.25;7258575;19;155681;-56
2023/03/25 12:41:06;;;;;;;;;;;;;;;21.09;40.08;100286.66;7264189;19;153789;-56
2023/03/25 12:43:36;;;;;;;;;;;;;;;21.09;39.95;100278.22;7255710;19;153219;-56
2023/03/25 12:46:06;;;;;;;;;;;;;;;21.09;40.48;100277.41;7257445;19;152899;-56
2023/03/25 12:48:34;;;;;;;;;;;;;;;21.14;40.41;100280.91;7252862;19;153541;-57
2023/03/25 12:51:04;;;;;;;;;;;;;;;21.11;40.24;100277.91;7259306;19;153227;-57
2023/03/25 12:53:35;;;;;;;;;;;;;;;21.16;39.66;100264.56;7254502;19;152339;-57
2023/03/25 12:56:02;;;;;;;;;;;;;;;21.21;40.06;100275.63;7256589;19;152366;-57
2023/03/25 12:58:29;;;;;;;;;;;;;;;21.25;39.89;100275.81;7257951;19;153284;-57
2023/03/25 13:00:57;;;;;;;;;;;;;;;21.30;39.46;100286.91;7257564;19;156530;-57
2023/03/25 13:03:27;;;;;;;;;;;;;;;21.32;39.39;100270.50;7265992;19;153258;-56
2023/03/25 13:05:59;;;;;;;;;;;;;;;21.34;38.93;100279.44;7257748;19;153849;-55
2023/03/25 13:08:30;;;;;;;;;;;;;;;21.38;39.05;100286.06;7256704;19;154909;-56